Time;durP1;ratioP1;P1;durP2;ratioP2;P2;SDS_P1;SDS_P2;PMS_P1;PMS_P2;Temp;Humidity;BMP_temperature;BMP_pressure;BME280_temperature;BME280_humidity;BME280_pressure;Samples;Min_cycle;Max_cycle;Signal;HPM_P1;HPM_P2
2020/12/17 00:01:32;;;;;;;2.70;1.10;;;26.30;81.90;;;;;;5114688;28;20029;-55
2020/12/17 00:04:00;;;;;;;2.42;1.27;;;26.40;81.30;;;;;;5114394;28;20053;-56
2020/12/17 00:06:27;;;;;;;4.40;1.90;;;26.50;81.20;;;;;;5114220;28;20027;-60
2020/12/17 00:08:54;;;;;;;3.08;1.10;;;26.40;81.00;;;;;;5113805;28;20486;-60
2020/12/17 00:11:23;;;;;;;7.43;1.58;;;26.50;80.70;;;;;;5114205;28;20101;-59
2020/12/17 00:13:51;;;;;;;2.25;1.25;;;26.50;80.60;;;;;;5114185;28;20126;-58
2020/12/17 00:16:20;;;;;;;6.40;1.33;;;26.60;80.40;;;;;;5114279;28;20066;-59
2020/12/17 00:18:47;;;;;;;4.50;1.00;;;26.70;80.30;;;;;;5113420;28;20052;-63
2020/12/17 00:21:20;;;;;;;2.20;1.10;;;26.70;79.90;;;;;;5113506;28;20069;-55
2020/12/17 00:23:47;;;;;;;2.35;1.58;;;26.70;80.10;;;;;;5113492;28;20046;-54
2020/12/17 00:26:15;;;;;;;3.85;1.48;;;26.70;79.90;;;;;;5113790;28;20038;-62
2020/12/17 00:28:42;;;;;;;2.47;1.15;;;26.80;79.40;;;;;;5095084;28;20087;-59
2020/12/17 00:31:09;;;;;;;4.75;1.20;;;26.80;79.40;;;;;;5114032;28;20020;-64
2020/12/17 00:33:38;;;;;;;3.50;1.30;;;26.90;79.00;;;;;;5113677;28;20040;-60
2020/12/17 00:36:06;;;;;;;1.88;1.08;;;27.00;79.20;;;;;;5113764;28;20027;-60
2020/12/17 00:38:34;;;;;;;3.67;1.35;;;26.90;79.10;;;;;;5113999;28;20038;-62
2020/12/17 00:41:02;;;;;;;6.03;1.58;;;27.10;79.00;;;;;;5113452;28;20496;-61
2020/12/17 00:43:29;;;;;;;3.78;1.63;;;27.20;78.80;;;;;;5113857;28;20442;-61
2020/12/17 00:45:57;;;;;;;2.20;1.10;;;27.30;78.10;;;;;;5113162;28;20035;-63
2020/12/17 00:48:24;;;;;;;2.22;1.42;;;27.30;78.00;;;;;;5113167;28;20023;-62
2020/12/17 00:50:51;;;;;;;4.93;1.35;;;27.30;78.00;;;;;;5113200;28;20093;-59
2020/12/17 00:53:19;;;;;;;3.63;1.20;;;27.30;78.20;;;;;;5112786;28;20428;-58
2020/12/17 00:55:46;;;;;;;1.83;1.10;;;27.50;77.50;;;;;;5113117;28;20097;-56
2020/12/17 00:58:13;;;;;;;2.25;1.20;;;27.50;77.50;;;;;;5094933;28;20474;-62
2020/12/17 01:00:41;;;;;;;4.32;1.25;;;27.60;77.70;;;;;;5112090;28;20034;-58
2020/12/17 01:03:08;;;;;;;3.28;1.30;;;27.70;77.20;;;;;;5112622;28;20050;-62
2020/12/17 01:05:35;;;;;;;2.72;1.02;;;27.70;76.90;;;;;;5094100;28;20370;-61
2020/12/17 01:08:03;;;;;;;2.47;1.20;;;27.60;77.10;;;;;;5112399;28;20073;-64
2020/12/17 01:10:31;;;;;;;3.03;1.33;;;27.60;77.40;;;;;;5112726;28;20474;-60
2020/12/17 01:12:58;;;;;;;3.40;1.40;;;27.80;77.20;;;;;;5112700;28;20035;-62
2020/12/17 01:15:26;;;;;;;5.15;2.22;;;27.90;76.40;;;;;;5112489;28;20384;-63
2020/12/17 01:17:53;;;;;;;3.55;1.42;;;27.90;76.50;;;;;;5112596;28;20386;-55
2020/12/17 01:20:21;;;;;;;2.65;1.23;;;28.10;75.80;;;;;;5113819;28;20098;-60
2020/12/17 01:22:52;;;;;;;3.60;1.48;;;28.00;76.60;;;;;;5113450;28;20051;-59
2020/12/17 01:25:19;;;;;;;7.10;2.10;;;28.00;76.50;;;;;;5113311;28;20533;-56
2020/12/17 01:27:47;;;;;;;3.83;1.50;;;28.20;76.50;;;;;;5113172;28;20292;-51
2020/12/17 01:30:14;;;;;;;10.77;2.35;;;28.20;75.60;;;;;;5113047;28;20027;-48
2020/12/17 01:32:41;;;;;;;6.90;2.40;;;28.30;76.00;;;;;;5112578;28;20078;-58
2020/12/17 01:35:09;;;;;;;5.65;1.45;;;28.40;75.20;;;;;;5106220;28;20118;-56
2020/12/17 01:37:36;;;;;;;5.72;1.70;;;28.30;75.20;;;;;;5112150;28;20079;-54
2020/12/17 01:40:05;;;;;;;8.05;2.92;;;28.30;75.50;;;;;;5113605;27;20160;-62
2020/12/17 01:42:32;;;;;;;6.28;1.60;;;28.30;75.70;;;;;;5087464;28;20020;-60
2020/12/17 01:44:59;;;;;;;7.32;2.00;;;28.50;74.60;;;;;;5087402;28;20027;-62
2020/12/17 01:47:38;;;;;;;3.28;1.45;;;28.50;75.20;;;;;;5111254;28;20405;-62
2020/12/17 01:50:08;;;;;;;7.90;2.08;;;28.50;75.00;;;;;;5110110;28;20027;-64
2020/12/17 01:52:35;;;;;;;3.38;1.70;;;28.50;75.20;;;;;;5107620;28;20459;-64
2020/12/17 01:55:03;;;;;;;9.80;1.95;;;28.50;75.10;;;;;;5110868;28;20051;-60
2020/12/17 01:57:36;;;;;;;2.67;1.23;;;28.50;75.00;;;;;;5111938;28;20047;-65
2020/12/17 02:00:08;;;;;;;4.25;1.63;;;28.30;75.80;;;;;;5111326;28;20100;-64
2020/12/17 02:02:36;;;;;;;7.32;2.03;;;28.30;75.90;;;;;;5106871;28;20027;-63
2020/12/17 02:05:06;;;;;;;8.00;1.88;;;28.50;75.10;;;;;;5109690;28;20385;-63
2020/12/17 02:07:34;;;;;;;4.88;1.70;;;28.50;75.20;;;;;;5110891;28;20055;-50
2020/12/17 02:10:01;;;;;;;3.15;1.55;;;28.50;75.50;;;;;;5092971;28;20104;-64
2020/12/17 02:12:46;;;;;;;2.88;1.55;;;28.40;75.50;;;;;;5106974;28;20111;-62
2020/12/17 02:15:15;;;;;;;7.18;2.17;;;28.40;75.80;;;;;;5107785;28;20519;-61
2020/12/17 02:17:43;;;;;;;6.43;2.05;;;28.50;75.40;;;;;;5110650;28;20043;-57
2020/12/17 02:20:12;;;;;;;3.22;1.55;;;28.50;75.40;;;;;;5092217;28;20104;-60
2020/12/17 02:22:40;;;;;;;11.15;2.55;;;28.40;75.90;;;;;;5106824;28;20024;-66
2020/12/17 02:25:12;;;;;;;5.63;2.00;;;28.40;75.50;;;;;;5109921;28;20028;-53
2020/12/17 02:27:41;;;;;;;8.88;2.20;;;28.40;75.90;;;;;;5112082;28;20080;-66
2020/12/17 02:30:10;;;;;;;6.90;2.35;;;28.40;76.10;;;;;;5111458;28;20028;-63
2020/12/17 02:32:38;;;;;;;6.20;2.28;;;28.50;76.20;;;;;;5106635;28;20032;-67
2020/12/17 02:35:06;;;;;;;5.28;1.98;;;28.50;75.90;;;;;;5094079;28;20046;-56
2020/12/17 02:37:34;;;;;;;4.85;1.70;;;28.30;76.20;;;;;;5111663;28;20034;-63
2020/12/17 02:40:04;;;;;;;6.80;2.33;;;28.30;76.40;;;;;;5111953;28;20019;-59
2020/12/17 02:42:31;;;;;;;2.65;1.70;;;28.40;76.10;;;;;;5111953;28;20024;-59
2020/12/17 02:44:59;;;;;;;5.05;2.17;;;28.40;76.10;;;;;;5093196;28;20048;-59
2020/12/17 02:47:26;;;;;;;5.45;1.98;;;28.40;75.90;;;;;;5111091;28;20026;-65
2020/12/17 02:49:53;;;;;;;5.03;2.42;;;28.50;75.90;;;;;;5111744;28;20077;-57
2020/12/17 02:52:21;;;;;;;8.68;2.08;;;28.60;75.60;;;;;;5111295;28;20107;-56
2020/12/17 02:54:48;;;;;;;5.20;2.22;;;28.60;75.30;;;;;;5111417;28;20078;-56
2020/12/17 02:57:16;;;;;;;3.83;2.13;;;28.60;75.20;;;;;;5111559;28;20020;-65
2020/12/17 02:59:44;;;;;;;4.32;1.77;;;28.60;75.10;;;;;;5110316;28;20111;-59
2020/12/17 03:02:12;;;;;;;4.38;1.95;;;28.60;75.60;;;;;;5110840;28;20050;-55
2020/12/17 03:04:39;;;;;;;5.43;2.00;;;28.60;75.50;;;;;;5111765;28;20023;-64
2020/12/17 03:07:06;;;;;;;5.15;1.70;;;28.50;75.50;;;;;;5093570;28;20381;-64
2020/12/17 03:09:34;;;;;;;6.55;2.40;;;28.50;75.60;;;;;;5111513;28;20111;-65
2020/12/17 03:12:01;;;;;;;9.95;2.53;;;28.60;75.50;;;;;;5111272;28;20485;-60
2020/12/17 03:14:28;;;;;;;5.82;2.10;;;28.60;75.70;;;;;;5111241;28;20079;-61
2020/12/17 03:16:56;;;;;;;4.82;2.13;;;28.60;75.20;;;;;;5092890;28;20028;-61
2020/12/17 03:19:23;;;;;;;5.18;2.03;;;28.60;75.50;;;;;;5111514;28;20058;-58
2020/12/17 03:21:54;;;;;;;6.50;2.38;;;28.40;75.90;;;;;;5104282;28;20027;-57
2020/12/17 03:24:22;;;;;;;8.43;2.75;;;28.30;76.30;;;;;;5113850;28;20033;-63
2020/12/17 03:26:49;;;;;;;6.40;2.20;;;28.50;75.90;;;;;;5099583;28;20031;-62
2020/12/17 03:29:17;;;;;;;8.45;1.83;;;28.60;75.70;;;;;;5112092;28;20416;-65
2020/12/17 03:31:44;;;;;;;5.03;2.45;;;28.50;76.00;;;;;;5113340;28;20019;-63
2020/12/17 03:34:11;;;;;;;9.60;2.90;;;28.40;76.10;;;;;;5114602;28;20442;-62
2020/12/17 03:36:39;;;;;;;4.88;2.33;;;28.40;76.20;;;;;;5110188;28;20103;-63
2020/12/17 03:39:06;;;;;;;2.50;1.73;;;28.40;76.60;;;;;;5112174;27;20457;-60
2020/12/17 03:41:33;;;;;;;3.53;1.92;;;28.30;77.00;;;;;;5112901;28;20024;-55
2020/12/17 03:44:01;;;;;;;6.82;2.22;;;28.20;77.60;;;;;;5113415;28;20390;-54
2020/12/17 03:46:28;;;;;;;7.25;2.10;;;28.20;77.40;;;;;;5114992;28;20019;-63
2020/12/17 03:48:56;;;;;;;6.40;2.53;;;28.20;77.40;;;;;;5115268;28;20085;-61
2020/12/17 03:51:23;;;;;;;6.85;2.47;;;28.30;77.00;;;;;;5114823;28;20102;-65
2020/12/17 03:53:50;;;;;;;7.03;2.75;;;28.30;77.10;;;;;;5096307;28;20054;-63
2020/12/17 03:56:18;;;;;;;8.13;2.72;;;28.30;77.00;;;;;;5114962;28;20127;-62
2020/12/17 03:58:45;;;;;;;7.38;2.50;;;28.40;76.70;;;;;;5115191;28;20024;-67
2020/12/17 04:01:12;;;;;;;8.98;2.85;;;28.40;76.70;;;;;;5114340;28;20325;-63
2020/12/17 04:03:39;;;;;;;5.95;2.20;;;28.40;76.60;;;;;;5113994;28;20016;-63
2020/12/17 04:06:07;;;;;;;6.20;2.13;;;28.50;76.60;;;;;;5114626;28;20102;-67
2020/12/17 04:08:34;;;;;;;14.32;3.08;;;28.50;76.60;;;;;;5114332;28;20119;-59
2020/12/17 04:11:02;;;;;;;9.52;3.13;;;28.80;75.10;;;;;;5104782;27;20031;-61
2020/12/17 04:13:30;;;;;;;11.85;3.10;;;29.60;71.70;;;;;;5109781;28;20512;-50
2020/12/17 04:16:02;;;;;;;8.60;2.22;;;30.00;69.50;;;;;;5110890;27;20031;-54
2020/12/17 04:18:30;;;;;;;10.73;3.15;;;29.40;72.00;;;;;;5112584;28;20052;-57
2020/12/17 04:20:57;;;;;;;16.15;3.58;;;28.70;74.00;;;;;;5111705;28;20042;-55
2020/12/17 04:23:25;;;;;;;12.52;3.03;;;29.50;71.50;;;;;;5107802;28;20581;-62
2020/12/17 04:25:52;;;;;;;15.32;3.22;;;28.80;74.70;;;;;;5112690;28;20019;-61
2020/12/17 04:28:20;;;;;;;8.02;2.85;;;28.70;75.20;;;;;;5113721;27;20558;-56
2020/12/17 04:30:47;;;;;;;15.82;3.45;;;28.70;75.60;;;;;;5111884;28;20024;-57
2020/12/17 04:33:14;;;;;;;12.70;3.42;;;29.00;73.50;;;;;;5108327;28;20071;-59
2020/12/17 04:35:42;;;;;;;15.18;3.92;;;29.00;74.00;;;;;;5112045;28;20222;-51
2020/12/17 04:38:09;;;;;;;11.57;2.88;;;29.00;72.80;;;;;;5111828;28;20028;-58
2020/12/17 04:40:37;;;;;;;10.02;2.92;;;29.00;73.40;;;;;;5112266;28;20020;-62
2020/12/17 04:43:04;;;;;;;11.68;2.80;;;29.10;72.80;;;;;;5107402;28;20027;-61
2020/12/17 04:45:33;;;;;;;12.65;3.40;;;28.70;75.20;;;;;;5093306;28;20043;-57
2020/12/17 04:48:05;;;;;;;12.57;3.42;;;28.80;74.90;;;;;;5111785;28;20023;-57
2020/12/17 04:50:33;;;;;;;12.93;3.67;;;28.70;75.60;;;;;;5112058;28;20019;-60
2020/12/17 04:53:04;;;;;;;8.63;3.10;;;28.90;72.90;;;;;;5107992;28;20031;-59
2020/12/17 04:55:35;;;;;;;15.87;4.20;;;28.70;74.20;;;;;;5113238;28;20020;-61
2020/12/17 04:58:09;;;;;;;10.27;3.08;;;28.70;73.30;;;;;;5112589;28;20148;-57
2020/12/17 05:00:41;;;;;;;10.02;3.13;;;28.50;75.60;;;;;;5111769;28;20043;-59
2020/12/17 05:03:13;;;;;;;9.80;4.55;;;28.30;76.80;;;;;;5107820;28;20113;-59
2020/12/17 05:05:41;;;;;;;8.07;2.58;;;28.20;77.40;;;;;;5112525;27;20534;-61
2020/12/17 05:08:10;;;;;;;11.77;3.33;;;28.10;77.50;;;;;;5111696;28;20032;-60
2020/12/17 05:10:37;;;;;;;13.73;3.30;;;28.00;77.80;;;;;;5111130;28;20023;-57
2020/12/17 05:13:06;;;;;;;12.90;3.22;;;27.90;77.80;;;;;;5108455;28;20486;-53
2020/12/17 05:15:33;;;;;;;13.57;3.22;;;27.90;76.80;;;;;;5100582;28;20016;-54
2020/12/17 05:18:01;;;;;;;8.68;2.92;;;27.80;78.60;;;;;;5110976;28;20054;-54
2020/12/17 05:20:28;;;;;;;21.95;4.10;;;27.70;79.40;;;;;;5109448;28;20373;-54
2020/12/17 05:22:56;;;;;;;14.23;4.60;;;27.70;77.40;;;;;;5106748;28;20035;-58
2020/12/17 05:25:24;;;;;;;9.50;3.10;;;27.80;76.20;;;;;;5111340;28;20058;-54
2020/12/17 05:27:51;;;;;;;11.93;3.35;;;27.90;76.10;;;;;;5111361;28;20046;-58
2020/12/17 05:30:19;;;;;;;10.35;2.92;;;28.10;77.00;;;;;;5110053;28;20028;-58
2020/12/17 05:32:46;;;;;;;11.65;2.72;;;27.80;78.40;;;;;;5106459;28;20023;-58
2020/12/17 05:35:19;;;;;;;14.23;3.88;;;27.70;78.90;;;;;;5110906;28;20033;-54
2020/12/17 05:37:46;;;;;;;14.43;3.38;;;28.00;78.30;;;;;;5111234;28;20024;-55
2020/12/17 05:40:14;;;;;;;14.50;3.00;;;27.90;75.50;;;;;;5110182;28;20023;-56
2020/12/17 05:42:43;;;;;;;13.10;3.63;;;28.10;75.00;;;;;;5105999;28;20150;-52
2020/12/17 05:45:27;;;;;;;14.98;4.15;;;28.00;77.30;;;;;;5110199;28;20045;-53
2020/12/17 05:48:16;;;;;;;15.88;4.30;;;28.00;75.90;;;;;;5109250;28;20033;-54
2020/12/17 05:51:01;;;;;;;18.45;3.60;;;28.10;75.10;;;;;;5087554;28;20035;-54
2020/12/17 05:53:29;;;;;;;16.65;3.63;;;28.10;75.40;;;;;;5103609;28;20397;-55
2020/12/17 05:56:08;;;;;;;12.35;3.17;;;28.00;74.40;;;;;;5109904;28;20068;-62
2020/12/17 05:58:39;;;;;;;14.30;4.13;;;28.00;75.90;;;;;;5110140;28;20161;-67
2020/12/17 06:01:19;;;;;;;16.38;3.63;;;28.40;74.10;;;;;;5110217;28;20104;-62
2020/12/17 06:03:47;;;;;;;12.25;4.00;;;28.40;75.60;;;;;;5090768;27;20043;-64
2020/12/17 06:06:14;;;;;;;13.63;3.25;;;28.40;75.50;;;;;;5107341;28;20077;-62
2020/12/17 06:08:49;;;;;;;15.27;3.28;;;28.40;73.50;;;;;;5111002;28;20486;-60
2020/12/17 06:11:17;;;;;;;13.73;3.58;;;28.40;73.90;;;;;;5109050;28;20253;-60
2020/12/17 06:13:45;;;;;;;11.80;3.13;;;28.30;74.00;;;;;;5085626;28;20028;-62
2020/12/17 06:16:12;;;;;;;13.75;3.45;;;28.30;74.10;;;;;;5110494;28;20024;-61
2020/12/17 06:18:57;;;;;;;16.80;8.55;;;28.30;74.70;;;;;;5091650;28;20140;-67
2020/12/17 06:21:28;;;;;;;17.48;8.48;;;28.40;75.00;;;;;;5109202;28;20023;-64
2020/12/17 06:24:02;;;;;;;16.52;6.30;;;28.30;74.70;;;;;;5105812;28;20095;-58
2020/12/17 06:26:37;;;;;;;19.58;6.43;;;28.40;74.40;;;;;;5111170;28;20015;-57
2020/12/17 06:29:16;;;;;;;24.88;12.88;;;28.40;74.10;;;;;;5110799;28;20108;-65
2020/12/17 06:31:54;;;;;;;17.50;6.00;;;28.30;74.30;;;;;;5109870;28;20085;-61
2020/12/17 06:34:22;;;;;;;17.58;8.30;;;28.30;74.10;;;;;;5107821;28;20061;-60
2020/12/17 06:36:57;;;;;;;24.05;13.20;;;28.30;73.70;;;;;;5110131;28;20031;-56
2020/12/17 06:39:25;;;;;;;18.05;10.65;;;28.40;73.90;;;;;;5091702;28;20485;-54
2020/12/17 06:41:52;;;;;;;22.60;16.02;;;28.30;74.10;;;;;;5107849;28;20019;-61
2020/12/17 06:44:32;;;;;;;14.45;5.75;;;28.30;74.40;;;;;;5107328;28;20035;-58
2020/12/17 06:47:01;;;;;;;14.57;7.05;;;28.30;73.50;;;;;;5107014;28;20430;-54
2020/12/17 06:49:30;;;;;;;19.05;8.48;;;28.40;73.40;;;;;;5110442;28;20023;-55
2020/12/17 06:52:08;;;;;;;15.85;8.00;;;28.40;73.40;;;;;;5106176;28;20322;-58
2020/12/17 06:54:41;;;;;;;17.70;6.28;;;28.40;73.70;;;;;;5110775;28;20035;-60
2020/12/17 06:57:18;;;;;;;14.98;10.35;;;28.50;72.70;;;;;;5107456;28;20066;-60
2020/12/17 07:00:04;;;;;;;10.45;4.88;;;28.50;72.70;;;;;;5114340;28;20023;-61
2020/12/17 07:02:42;;;;;;;16.10;7.72;;;28.60;71.50;;;;;;5108963;28;20108;-58
2020/12/17 07:05:36;;;;;;;20.08;10.45;;;28.60;72.50;;;;;;5112464;27;20039;-58
2020/12/17 07:08:04;;;;;;;16.75;9.52;;;28.50;72.70;;;;;;5114002;28;20032;-55
2020/12/17 07:10:33;;;;;;;15.68;6.82;;;28.50;73.20;;;;;;5113178;28;20069;-53
2020/12/17 07:13:00;;;;;;;14.02;4.38;;;28.50;73.10;;;;;;5108313;28;20486;-58
2020/12/17 07:15:38;;;;;;;12.25;4.60;;;28.60;73.00;;;;;;5113987;28;20031;-54
2020/12/17 07:18:20;;;;;;;13.48;5.30;;;28.60;73.40;;;;;;5095265;28;20723;-56
2020/12/17 07:20:52;;;;;;;15.95;5.95;;;28.60;73.90;;;;;;5110322;28;20258;-56
2020/12/17 07:23:20;;;;;;;;;;;28.60;74.50;;;;;;5109354;28;20486;-56
2020/12/17 07:25:52;;;;;;;15.90;4.78;;;28.60;74.40;;;;;;5113764;28;19903;-61
2020/12/17 07:28:26;;;;;;;13.38;5.43;;;28.50;74.60;;;;;;5113446;28;20409;-60
2020/12/17 07:30:53;;;;;;;;;;;28.50;75.30;;;;;;5115245;28;20043;-59
2020/12/17 07:33:53;;;;;;;17.67;5.88;;;28.40;75.70;;;;;;5114804;28;20383;-68
2020/12/17 07:36:49;;;;;;;20.75;5.35;;;28.40;76.40;;;;;;5059911;28;20040;-61
2020/12/17 07:39:16;;;;;;;16.90;5.03;;;28.30;76.40;;;;;;5115203;28;20465;-61
2020/12/17 07:41:44;;;;;;;20.42;4.95;;;28.30;76.70;;;;;;5114241;28;20497;-66
2020/12/17 07:44:11;;;;;;;17.58;4.53;;;28.40;76.20;;;;;;5114381;28;20069;-61
2020/12/17 07:46:42;;;;;;;13.63;3.70;;;28.40;76.60;;;;;;5114661;28;20521;-60
2020/12/17 07:49:30;;;;;;;13.07;4.32;;;28.40;76.30;;;;;;5114851;28;20084;-60
2020/12/17 07:51:58;;;;;;;15.90;5.18;;;28.40;76.80;;;;;;5114593;28;20375;-62
2020/12/17 07:54:25;;;;;;;15.65;4.88;;;28.40;76.90;;;;;;5114030;28;20028;-58
2020/12/17 07:57:00;;;;;;;18.67;4.93;;;28.50;77.20;;;;;;5113850;28;20455;-58
2020/12/17 07:59:28;;;;;;;17.08;5.07;;;28.40;76.90;;;;;;5114234;28;20382;-62
2020/12/17 08:02:03;;;;;;;16.58;4.93;;;28.40;77.00;;;;;;5114070;28;20115;-59
2020/12/17 08:04:31;;;;;;;13.15;4.35;;;28.40;78.00;;;;;;5114214;28;20035;-59
2020/12/17 08:07:05;;;;;;;13.45;5.47;;;28.30;77.90;;;;;;5114337;28;20023;-58
2020/12/17 08:09:32;;;;;;;16.52;4.82;;;28.30;78.10;;;;;;5113366;28;20023;-59
2020/12/17 08:12:01;;;;;;;17.02;5.10;;;28.20;77.70;;;;;;5114602;28;20113;-59
2020/12/17 08:14:30;;;;;;;35.00;6.25;;;28.20;78.00;;;;;;5095662;28;20035;-57
2020/12/17 08:17:07;;;;;;;18.02;5.72;;;28.20;78.40;;;;;;5114475;28;20102;-56
2020/12/17 08:19:35;;;;;;;19.25;5.15;;;28.10;78.80;;;;;;5113777;28;20043;-57
2020/12/17 08:22:03;;;;;;;21.85;6.20;;;28.10;78.80;;;;;;5114108;28;20393;-59
2020/12/17 08:24:34;;;;;;;19.83;5.15;;;28.10;78.40;;;;;;5097450;28;20012;-59
2020/12/17 08:27:01;;;;;;;16.77;4.60;;;28.00;78.40;;;;;;5093529;28;20125;-60
2020/12/17 08:29:31;;;;;;;14.63;5.07;;;28.10;79.00;;;;;;5093313;28;20016;-61
2020/12/17 08:31:59;;;;;;;19.90;5.60;;;28.10;78.70;;;;;;5093356;28;20035;-56
2020/12/17 08:34:27;;;;;;;18.38;5.95;;;28.10;79.80;;;;;;5093100;28;20035;-59
2020/12/17 08:36:56;;;;;;;14.82;4.50;;;28.10;80.10;;;;;;5093286;28;20021;-58
2020/12/17 08:39:23;;;;;;;24.17;5.03;;;28.00;81.10;;;;;;5089709;27;21774;-49
2020/12/17 08:41:54;;;;;;;22.05;5.00;;;28.00;81.70;;;;;;5112712;27;20042;-56
2020/12/17 08:44:28;;;;;;;21.60;5.57;;;28.00;82.20;;;;;;5110462;28;20020;-56
2020/12/17 08:47:04;;;;;;;25.23;4.93;;;27.90;82.60;;;;;;5117007;27;20019;-57
2020/12/17 08:49:33;;;;;;;17.38;5.03;;;27.80;83.50;;;;;;5111871;28;20019;-56
2020/12/17 08:52:01;;;;;;;18.75;4.85;;;27.80;84.00;;;;;;5113207;28;20027;-58
2020/12/17 08:54:32;;;;;;;19.02;4.15;;;27.80;85.00;;;;;;5113294;28;20139;-61
2020/12/17 08:57:01;;;;;;;16.07;4.23;;;27.70;83.40;;;;;;5113684;28;20077;-57
2020/12/17 08:59:29;;;;;;;18.77;5.30;;;27.70;84.10;;;;;;5113236;28;20028;-57
2020/12/17 09:01:58;;;;;;;13.40;4.32;;;27.70;85.60;;;;;;5113302;28;20023;-58
2020/12/17 09:04:26;;;;;;;18.10;8.90;;;27.70;85.90;;;;;;5094644;28;20030;-55
2020/12/17 09:06:57;;;;;;;17.13;7.93;;;27.70;83.90;;;;;;5113008;28;20072;-57
2020/12/17 09:09:27;;;;;;;14.47;5.03;;;27.70;83.80;;;;;;5113273;28;20034;-61
2020/12/17 09:11:56;;;;;;;13.32;6.07;;;27.70;85.60;;;;;;5113133;28;20252;-59
2020/12/17 09:14:31;;;;;;;15.02;7.20;;;27.80;84.50;;;;;;5113138;28;20028;-54
2020/12/17 09:17:18;;;;;;;11.68;7.53;;;27.70;86.70;;;;;;5113207;28;20038;-58
2020/12/17 09:19:47;;;;;;;11.77;8.48;;;27.70;86.40;;;;;;5111636;28;20168;-58
2020/12/17 09:22:19;;;;;;;13.90;7.43;;;27.80;86.10;;;;;;5112405;28;20111;-57
2020/12/17 09:24:54;;;;;;;10.20;7.07;;;27.80;85.70;;;;;;5112730;28;20019;-57
2020/12/17 09:27:27;;;;;;;13.45;8.00;;;27.80;85.70;;;;;;5113133;28;20031;-59
2020/12/17 09:30:01;;;;;;;15.27;9.02;;;27.70;86.50;;;;;;5113246;28;20024;-58
2020/12/17 09:32:28;;;;;;;16.25;9.57;;;27.70;84.70;;;;;;5112802;28;20358;-57
2020/12/17 09:35:06;;;;;;;16.60;8.20;;;27.70;84.90;;;;;;5112440;28;20031;-57
2020/12/17 09:37:34;;;;;;;17.67;11.02;;;27.70;87.70;;;;;;5111882;28;20094;-60
2020/12/17 09:40:03;;;;;;;19.42;12.55;;;27.60;86.80;;;;;;5113000;28;20038;-60
2020/12/17 09:42:31;;;;;;;16.60;11.18;;;27.50;85.10;;;;;;5112801;28;20110;-60
2020/12/17 09:44:58;;;;;;;13.77;9.20;;;27.50;86.20;;;;;;5112537;28;20374;-61
2020/12/17 09:47:34;;;;;;;14.32;8.18;;;27.40;86.00;;;;;;5111615;28;20023;-59
2020/12/17 09:50:13;;;;;;;21.63;18.48;;;27.40;85.80;;;;;;5102966;27;20374;-60
2020/12/17 09:52:41;;;;;;;15.18;13.63;;;27.30;86.10;;;;;;5106035;28;20032;-60
2020/12/17 09:55:08;;;;;;;14.90;12.00;;;27.30;85.00;;;;;;5113909;27;20023;-63
2020/12/17 09:57:44;;;;;;;21.25;17.08;;;27.30;85.00;;;;;;5107201;28;20377;-62
2020/12/17 10:00:15;;;;;;;16.95;11.30;;;27.30;86.30;;;;;;5106738;28;20160;-62
2020/12/17 10:02:44;;;;;;;16.58;9.50;;;27.20;85.90;;;;;;5106604;28;20047;-59
2020/12/17 10:05:11;;;;;;;12.35;9.90;;;27.20;85.10;;;;;;5111653;28;20031;-58
2020/12/17 10:07:46;;;;;;;12.23;8.48;;;27.20;85.70;;;;;;5113853;27;20043;-55
2020/12/17 10:10:14;;;;;;;11.32;7.47;;;27.20;85.80;;;;;;5106443;28;20080;-54
2020/12/17 10:12:42;;;;;;;11.35;8.98;;;27.20;85.90;;;;;;5105357;28;20031;-62
2020/12/17 10:15:09;;;;;;;10.63;8.20;;;27.20;86.10;;;;;;5105725;28;20123;-56
2020/12/17 10:17:37;;;;;;;12.18;8.50;;;27.10;86.30;;;;;;5109664;28;20115;-61
2020/12/17 10:20:07;;;;;;;14.30;8.73;;;27.10;86.50;;;;;;5108028;28;20071;-59
2020/12/17 10:22:35;;;;;;;11.70;8.38;;;27.10;86.50;;;;;;5106958;28;20027;-53
2020/12/17 10:25:03;;;;;;;12.90;8.18;;;27.10;86.60;;;;;;5111259;28;20386;-55
2020/12/17 10:27:30;;;;;;;10.48;7.60;;;27.00;86.40;;;;;;5111162;28;20428;-59
2020/12/17 10:29:58;;;;;;;9.95;7.03;;;27.00;85.80;;;;;;5110728;28;20023;-60
2020/12/17 10:32:25;;;;;;;12.35;7.93;;;27.00;86.10;;;;;;5108601;28;20023;-61
2020/12/17 10:34:52;;;;;;;9.55;7.53;;;27.00;86.40;;;;;;5115671;28;20035;-62
2020/12/17 10:37:19;;;;;;;10.45;7.57;;;26.90;86.10;;;;;;5115137;28;20038;-61
2020/12/17 10:39:47;;;;;;;9.15;6.93;;;26.90;85.80;;;;;;5115174;28;20031;-56
2020/12/17 10:42:14;;;;;;;11.60;7.53;;;26.90;85.90;;;;;;5110591;28;20019;-63
2020/12/17 10:44:42;;;;;;;14.63;6.80;;;26.90;85.80;;;;;;5119007;27;20057;-59
2020/12/17 10:47:09;;;;;;;10.60;6.50;;;26.90;86.20;;;;;;5115746;28;20477;-59
2020/12/17 10:49:37;;;;;;;8.85;6.22;;;26.80;85.90;;;;;;5114189;28;20036;-56
2020/12/17 10:52:05;;;;;;;8.25;7.10;;;26.80;86.00;;;;;;5110180;28;20027;-48
2020/12/17 10:54:35;;;;;;;10.77;7.30;;;26.80;86.10;;;;;;5114996;28;20114;-48
2020/12/17 10:57:03;;;;;;;9.85;6.05;;;26.80;86.20;;;;;;5115192;28;20024;-50
2020/12/17 10:59:30;;;;;;;10.52;5.30;;;26.80;86.00;;;;;;5114785;28;20023;-53
2020/12/17 11:01:58;;;;;;;9.98;6.35;;;26.80;85.50;;;;;;5110718;28;20452;-60
2020/12/17 11:04:26;;;;;;;11.27;6.00;;;26.80;86.10;;;;;;5111316;28;20023;-61
2020/12/17 11:06:58;;;;;;;12.20;6.15;;;26.80;85.60;;;;;;5114829;28;20023;-62
2020/12/17 11:09:25;;;;;;;11.20;6.57;;;26.80;85.70;;;;;;5114047;28;20016;-62
2020/12/17 11:11:53;;;;;;;7.57;5.53;;;26.80;85.70;;;;;;5110271;28;20049;-55
2020/12/17 11:14:21;;;;;;;11.85;6.57;;;26.70;85.60;;;;;;5114337;28;20054;-61
2020/12/17 11:16:52;;;;;;;9.30;5.38;;;26.70;85.70;;;;;;5114999;28;20030;-65
2020/12/17 11:19:23;;;;;;;7.25;6.00;;;26.70;85.60;;;;;;5115032;28;20432;-56
2020/12/17 11:21:51;;;;;;;9.50;6.20;;;26.70;85.90;;;;;;5074393;28;20023;-56
2020/12/17 11:24:18;;;;;;;9.50;5.75;;;26.70;85.80;;;;;;5115222;28;20024;-59
2020/12/17 11:26:46;;;;;;;7.68;4.97;;;26.70;85.80;;;;;;5115050;28;20027;-60
2020/12/17 11:29:14;;;;;;;10.95;5.95;;;26.60;85.90;;;;;;5115643;28;20016;-50
2020/12/17 11:31:48;;;;;;;9.90;5.88;;;26.60;86.00;;;;;;5109201;28;20535;-59
2020/12/17 11:34:16;;;;;;;9.00;5.43;;;26.60;86.00;;;;;;5114444;28;20068;-56
2020/12/17 11:36:46;;;;;;;11.50;6.05;;;26.60;86.10;;;;;;5096782;28;20055;-53
2020/12/17 11:39:14;;;;;;;7.70;5.50;;;26.60;86.20;;;;;;5111327;28;20358;-58
2020/12/17 11:41:47;;;;;;;10.13;5.32;;;26.50;86.10;;;;;;5108607;28;20035;-60
2020/12/17 11:44:18;;;;;;;7.43;4.60;;;26.50;85.90;;;;;;5115905;27;20034;-57
2020/12/17 11:46:46;;;;;;;8.63;5.68;;;26.50;86.20;;;;;;5113474;28;20415;-60
2020/12/17 11:49:14;;;;;;;7.90;5.00;;;26.50;86.20;;;;;;5114344;28;20096;-57
2020/12/17 11:51:41;;;;;;;6.72;4.90;;;26.50;86.00;;;;;;5107145;28;20034;-61
2020/12/17 11:54:09;;;;;;;9.68;5.22;;;26.50;86.10;;;;;;5095915;28;20031;-63
2020/12/17 11:56:36;;;;;;;7.50;4.28;;;26.50;86.10;;;;;;5115060;28;20024;-61
2020/12/17 11:59:04;;;;;;;6.75;4.47;;;26.50;86.20;;;;;;5114142;28;20039;-57
2020/12/17 12:01:32;;;;;;;6.03;4.53;;;26.50;86.20;;;;;;5106540;28;20069;-56
2020/12/17 12:03:59;;;;;;;6.82;4.57;;;26.50;86.20;;;;;;5115363;28;20024;-53
2020/12/17 12:06:26;;;;;;;9.35;4.85;;;26.50;86.30;;;;;;5114953;28;20138;-57
2020/12/17 12:08:54;;;;;;;8.52;4.97;;;26.40;86.20;;;;;;5115080;28;20027;-61
2020/12/17 12:11:22;;;;;;;7.75;4.75;;;26.40;86.40;;;;;;5114933;28;20439;-60
2020/12/17 12:13:50;;;;;;;7.57;4.50;;;26.40;86.60;;;;;;5114835;28;20080;-60
2020/12/17 12:16:17;;;;;;;6.65;3.58;;;26.30;86.50;;;;;;5114977;28;20342;-59
2020/12/17 12:18:45;;;;;;;7.03;3.63;;;26.30;86.40;;;;;;5114162;28;20108;-64
2020/12/17 12:21:13;;;;;;;7.20;4.85;;;26.30;86.30;;;;;;5114625;28;20027;-59
2020/12/17 12:23:42;;;;;;;9.77;4.38;;;26.30;86.50;;;;;;5114095;28;20024;-64
2020/12/17 12:26:11;;;;;;;8.18;4.38;;;26.30;86.70;;;;;;5114745;28;20106;-61
2020/12/17 12:28:38;;;;;;;8.05;4.75;;;26.20;86.70;;;;;;5114645;28;20060;-61
2020/12/17 12:31:06;;;;;;;7.63;4.70;;;26.20;86.80;;;;;;5112365;28;20115;-62
2020/12/17 12:33:34;;;;;;;6.50;4.70;;;26.20;87.00;;;;;;5114022;28;20043;-61
2020/12/17 12:36:01;;;;;;;7.03;3.97;;;26.20;87.00;;;;;;5114899;28;20473;-59
2020/12/17 12:38:29;;;;;;;7.82;4.03;;;26.10;86.80;;;;;;5114574;28;20051;-61
2020/12/17 12:40:56;;;;;;;6.72;3.90;;;26.10;86.70;;;;;;5113952;28;20032;-61
2020/12/17 12:43:23;;;;;;;6.10;3.58;;;26.10;86.60;;;;;;5114070;28;20039;-61
2020/12/17 12:45:54;;;;;;;7.47;3.65;;;26.10;86.60;;;;;;5114094;28;20153;-56
2020/12/17 12:48:21;;;;;;;6.72;4.13;;;26.10;86.60;;;;;;5113925;28;20031;-57
2020/12/17 12:50:51;;;;;;;12.07;4.20;;;26.10;86.60;;;;;;5114205;28;20034;-62
2020/12/17 12:53:18;;;;;;;10.45;4.55;;;26.10;86.70;;;;;;5106322;27;20770;-62